createdAt,value
2017-11-22T00:02:18.864Z,11.93
2017-11-22T00:04:46.288Z,12.77
2017-11-22T00:07:13.701Z,9.87
2017-11-22T00:09:41.116Z,9.70
2017-11-22T00:12:09.298Z,10.30
2017-11-22T00:14:37.484Z,11.77
2017-11-22T00:17:04.889Z,8.43
2017-11-22T00:19:32.310Z,8.47
2017-11-22T00:21:59.828Z,8.60
2017-11-22T00:24:28.024Z,11.00
2017-11-22T00:26:56.204Z,10.03
2017-11-22T00:29:24.688Z,11.57
2017-11-22T00:31:52.092Z,9.97
2017-11-22T00:34:20.048Z,10.93
2017-11-22T00:36:47.461Z,10.43
2017-11-22T00:39:14.884Z,9.73
2017-11-22T00:41:42.301Z,10.77
2017-11-22T00:44:09.718Z,7.20
2017-11-22T00:46:37.887Z,9.10
2017-11-22T00:49:07.318Z,10.73
2017-11-22T00:51:34.723Z,8.90
2017-11-22T00:54:02.144Z,9.43
2017-11-22T00:56:29.553Z,8.23
2017-11-22T00:58:56.965Z,8.63
2017-11-22T01:01:24.382Z,9.10
2017-11-22T01:03:52.969Z,8.50
2017-11-22T01:06:20.376Z,10.10
2017-11-22T01:08:47.780Z,9.03
2017-11-22T01:11:15.968Z,7.73
2017-11-22T01:13:43.376Z,8.80
2017-11-22T01:16:10.794Z,8.93
2017-11-22T01:18:38.216Z,10.67
2017-11-22T01:21:06.397Z,9.50
2017-11-22T01:23:34.576Z,8.57
2017-11-22T01:26:01.996Z,9.53
2017-11-22T01:28:29.420Z,10.03
2017-11-22T01:30:56.833Z,13.17
2017-11-22T01:33:25.416Z,9.70
2017-11-22T01:35:53.616Z,10.40
2017-11-22T01:38:21.713Z,11.00
2017-11-22T01:40:49.520Z,11.37
2017-11-22T01:43:20.652Z,12.37
2017-11-22T01:45:48.069Z,10.40
2017-11-22T01:48:16.012Z,9.47
2017-11-22T01:50:43.444Z,8.10
2017-11-22T01:53:11.269Z,11.87
2017-11-22T01:55:38.692Z,12.20
2017-11-22T01:58:06.681Z,10.67
2017-11-22T02:00:47.829Z,12.30
2017-11-22T02:03:18.668Z,10.23
2017-11-22T02:05:46.848Z,8.80
2017-11-22T02:08:14.263Z,8.73
2017-11-22T02:10:41.689Z,8.47
2017-11-22T02:13:09.654Z,9.33
2017-11-22T02:15:37.063Z,13.00
2017-11-22T02:18:04.480Z,11.33
2017-11-22T02:20:32.674Z,9.57
2017-11-22T02:23:00.090Z,10.20
2017-11-22T02:25:27.505Z,9.93
2017-11-22T02:27:56.340Z,11.83
2017-11-22T02:30:23.760Z,12.23
2017-11-22T02:32:54.410Z,9.23
2017-11-22T02:35:22.607Z,12.27
2017-11-22T02:38:04.487Z,8.97
2017-11-22T02:40:31.908Z,9.60
2017-11-22T02:42:59.334Z,10.00
2017-11-22T02:45:26.758Z,11.60
2017-11-22T02:47:54.180Z,11.93
2017-11-22T02:50:21.599Z,10.70
2017-11-22T02:52:49.020Z,12.70
2017-11-22T02:55:16.868Z,8.90
2017-11-22T02:57:45.043Z,9.80
2017-11-22T03:00:13.773Z,10.60
2017-11-22T03:02:41.688Z,13.23
2017-11-22T03:05:09.112Z,13.97
2017-11-22T03:07:36.529Z,11.73
2017-11-22T03:10:03.957Z,12.63
2017-11-22T03:12:31.364Z,13.77
2017-11-22T03:14:58.792Z,13.77
2017-11-22T03:17:26.973Z,12.60
2017-11-22T03:19:54.404Z,10.27
2017-11-22T03:22:22.592Z,10.03
2017-11-22T03:24:50.776Z,9.97
2017-11-22T03:27:19.129Z,10.00
2017-11-22T03:29:46.549Z,11.23
2017-11-22T03:32:14.211Z,10.10
2017-11-22T03:34:41.632Z,10.17
2017-11-22T03:37:09.222Z,11.37
2017-11-22T03:39:36.653Z,10.50
2017-11-22T03:42:04.061Z,10.70
2017-11-22T03:44:31.483Z,9.67
2017-11-22T03:46:58.884Z,8.67
2017-11-22T03:49:26.305Z,12.70
2017-11-22T03:51:59.361Z,13.80
2017-11-22T03:54:27.573Z,12.93
2017-11-22T03:56:54.996Z,15.93
2017-11-22T03:59:22.415Z,11.37
2017-11-22T04:01:49.834Z,14.83
2017-11-22T04:07:13.932Z,16.27
2017-11-22T04:09:41.360Z,16.97
2017-11-22T04:12:09.517Z,18.07
2017-11-22T04:14:37.727Z,17.53
2017-11-22T04:17:05.903Z,18.97
2017-11-22T04:22:26.477Z,17.73
2017-11-22T04:24:53.906Z,15.67
2017-11-22T04:27:21.324Z,20.13
2017-11-22T04:29:48.748Z,20.77
2017-11-22T04:32:16.949Z,16.57
2017-11-22T04:34:44.364Z,15.37
2017-11-22T04:37:22.348Z,15.40
2017-11-22T04:39:50.198Z,14.83
2017-11-22T04:42:17.623Z,18.17
2017-11-22T04:44:45.829Z,14.30
2017-11-22T04:47:13.316Z,17.93
2017-11-22T04:49:51.299Z,13.20
2017-11-22T04:52:18.716Z,13.47
2017-11-22T04:54:46.901Z,15.27
2017-11-22T04:57:14.328Z,15.47
2017-11-22T04:59:41.745Z,12.87
2017-11-22T05:02:09.172Z,15.83
2017-11-22T05:04:37.173Z,15.20
2017-11-22T05:07:04.600Z,15.83
2017-11-22T05:09:32.572Z,14.53
2017-11-22T05:12:00.056Z,15.87
2017-11-22T05:14:27.483Z,14.63
2017-11-22T05:16:54.909Z,15.00
2017-11-22T05:19:22.334Z,16.67
2017-11-22T05:21:49.865Z,13.50
2017-11-22T05:24:17.293Z,19.63
2017-11-22T05:26:45.513Z,17.60
2017-11-22T05:29:12.960Z,15.13
2017-11-22T05:31:40.912Z,16.93
2017-11-22T05:34:08.324Z,17.00
2017-11-22T05:36:35.748Z,16.13
2017-11-22T05:39:03.177Z,14.07
2017-11-22T05:41:30.605Z,12.90
2017-11-22T05:43:58.025Z,12.87
2017-11-22T05:46:25.457Z,16.70
2017-11-22T05:48:52.884Z,14.73
2017-11-22T05:51:21.079Z,14.43
2017-11-22T05:53:49.261Z,15.37
2017-11-22T05:56:29.818Z,17.30
2017-11-22T05:58:57.241Z,19.90
2017-11-22T06:01:26.657Z,16.60
2017-11-22T06:03:54.845Z,18.93
2017-11-22T06:06:23.045Z,19.83
2017-11-22T06:08:50.469Z,20.70
2017-11-22T06:11:22.312Z,21.30
2017-11-22T06:13:49.731Z,20.40
2017-11-22T06:16:17.161Z,18.93
2017-11-22T06:21:54.772Z,19.60
2017-11-22T06:24:22.197Z,18.03
2017-11-22T06:26:49.652Z,19.27
2017-11-22T06:29:17.076Z,19.70
2017-11-22T06:31:44.501Z,19.87
2017-11-22T06:34:11.929Z,17.83
2017-11-22T06:36:40.124Z,17.20
2017-11-22T06:39:10.021Z,19.63
2017-11-22T06:41:38.216Z,17.80
2017-11-22T06:44:05.645Z,20.20
2017-11-22T06:46:33.065Z,20.30
2017-11-22T06:49:06.997Z,17.47
2017-11-22T06:51:35.190Z,18.57
2017-11-22T06:54:02.613Z,15.57
2017-11-22T06:56:30.024Z,19.53
2017-11-22T06:58:57.466Z,16.80
2017-11-22T07:01:53.326Z,17.83
2017-11-22T07:04:21.432Z,14.67
2017-11-22T07:06:49.280Z,18.23
2017-11-22T07:09:17.114Z,16.43
2017-11-22T07:11:44.537Z,18.17
2017-11-22T07:14:11.960Z,21.43
2017-11-22T07:16:45.109Z,18.70
2017-11-22T07:19:13.568Z,17.50
2017-11-22T07:21:40.977Z,19.70
2017-11-22T07:24:08.407Z,17.00
2017-11-22T07:26:35.832Z,15.30
2017-11-22T07:29:13.868Z,17.67
2017-11-22T07:31:41.301Z,17.23
2017-11-22T07:34:08.722Z,13.57
2017-11-22T07:36:41.872Z,14.90
2017-11-22T07:39:11.267Z,16.90
2017-11-22T07:41:40.633Z,20.40
2017-11-22T07:44:08.064Z,17.10
2017-11-22T07:46:35.491Z,20.63
2017-11-22T07:49:03.665Z,18.70
2017-11-22T07:51:36.699Z,16.33
2017-11-22T07:54:05.100Z,15.60
2017-11-22T07:56:33.449Z,18.03
2017-11-22T07:59:16.689Z,19.63
2017-11-22T08:01:44.119Z,18.90
2017-11-22T08:04:17.179Z,19.03
2017-11-22T08:06:45.361Z,18.73
2017-11-22T08:09:12.780Z,18.43
2017-11-22T08:11:40.207Z,23.20
2017-11-22T08:14:07.633Z,19.00
2017-11-22T08:16:35.065Z,19.13
2017-11-22T08:19:03.265Z,17.53
2017-11-22T08:21:31.103Z,18.10
2017-11-22T08:23:58.521Z,18.77
2017-11-22T08:26:25.955Z,18.20
2017-11-22T08:28:53.370Z,17.87
2017-11-22T08:31:21.565Z,22.70
2017-11-22T08:33:50.085Z,17.73
2017-11-22T08:36:18.824Z,15.83
2017-11-22T08:38:47.538Z,18.67
2017-11-22T08:41:19.120Z,16.13
2017-11-22T08:43:49.464Z,16.97
2017-11-22T08:46:16.894Z,17.87
2017-11-22T08:48:44.713Z,14.37
2017-11-22T08:51:12.904Z,15.43
2017-11-22T08:53:40.911Z,11.77
2017-11-22T08:56:14.089Z,16.90
2017-11-22T08:58:42.085Z,14.07
2017-11-22T09:01:09.516Z,18.90
2017-11-22T09:04:01.044Z,15.27
2017-11-22T09:06:30.363Z,19.57
2017-11-22T09:08:57.775Z,17.93
2017-11-22T09:11:25.199Z,16.27
2017-11-22T09:13:53.400Z,14.40
2017-11-22T09:16:20.819Z,15.10
2017-11-22T09:18:55.908Z,13.40
2017-11-22T09:21:27.106Z,15.50
2017-11-22T09:26:47.402Z,13.23
2017-11-22T09:29:20.780Z,18.93
2017-11-22T09:32:07.902Z,10.23
2017-11-22T09:34:47.812Z,12.17
2017-11-22T09:37:17.148Z,12.60
2017-11-22T09:39:44.985Z,17.77
2017-11-22T09:42:14.357Z,15.20
2017-11-22T09:44:45.297Z,15.17
2017-11-22T09:47:15.979Z,13.83
2017-11-22T09:49:49.380Z,12.87
2017-11-22T09:52:33.813Z,12.87
2017-11-22T09:55:01.237Z,14.53
2017-11-22T09:57:28.681Z,13.23
2017-11-22T09:59:56.102Z,12.90
2017-11-22T10:02:37.981Z,14.87
2017-11-22T10:05:11.926Z,13.07
2017-11-22T10:07:53.373Z,16.03
2017-11-22T10:10:26.628Z,18.03
2017-11-22T10:12:54.330Z,15.17
2017-11-22T10:15:22.498Z,13.70
2017-11-22T10:18:00.290Z,13.43
2017-11-22T10:20:28.492Z,13.23
2017-11-22T10:22:55.922Z,14.63
2017-11-22T10:25:39.158Z,18.50
2017-11-22T10:28:07.124Z,16.63
2017-11-22T10:30:34.551Z,15.10
2017-11-22T10:33:17.777Z,15.73
2017-11-22T10:35:48.709Z,19.57
2017-11-22T10:38:16.159Z,18.23
2017-11-22T10:40:43.581Z,17.03
2017-11-22T10:43:11.039Z,18.40
2017-11-22T10:45:45.580Z,19.33
2017-11-22T10:48:34.544Z,14.87
2017-11-22T10:51:01.961Z,13.47
2017-11-22T10:53:29.383Z,15.47
2017-11-22T10:56:16.453Z,13.53
2017-11-22T10:59:00.379Z,15.70
2017-11-22T11:01:27.796Z,12.47
2017-11-22T11:03:55.465Z,14.23
2017-11-22T11:06:29.849Z,13.03
2017-11-22T11:08:57.285Z,13.00
2017-11-22T11:11:41.620Z,13.60
2017-11-22T11:14:15.480Z,11.47
2017-11-22T11:16:43.881Z,11.10
2017-11-22T11:19:11.393Z,12.23
2017-11-22T11:21:39.212Z,11.50
2017-11-22T11:24:06.803Z,13.57
2017-11-22T11:26:35.140Z,11.20
2017-11-22T11:29:08.627Z,8.87
2017-11-22T11:31:36.047Z,11.27
2017-11-22T11:34:04.347Z,9.60
2017-11-22T11:36:33.390Z,12.07
2017-11-22T11:39:01.581Z,10.73
2017-11-22T11:41:29.014Z,10.80
2017-11-22T11:43:57.205Z,13.30
2017-11-22T11:46:24.619Z,9.07
2017-11-22T11:48:52.054Z,9.60
2017-11-22T11:51:19.601Z,11.73
2017-11-22T11:53:48.976Z,10.00
2017-11-22T11:56:17.880Z,12.23
2017-11-22T11:58:45.308Z,8.37
2017-11-22T12:01:13.497Z,10.60
2017-11-22T12:03:40.932Z,13.00
2017-11-22T12:06:09.123Z,10.02
2017-11-22T12:08:41.376Z,10.32
2017-11-22T12:11:11.408Z,11.15
2017-11-22T12:13:39.605Z,13.30
2017-11-22T12:16:07.029Z,10.63
2017-11-22T12:18:35.949Z,11.45
2017-11-22T12:21:03.782Z,11.75
2017-11-22T12:23:31.228Z,10.77
2017-11-22T12:25:58.648Z,8.60
2017-11-22T12:28:26.087Z,8.48
2017-11-22T12:30:53.508Z,11.75
2017-11-22T12:33:20.928Z,11.05
2017-11-22T12:35:48.750Z,12.05
2017-11-22T12:38:16.935Z,8.90
2017-11-22T12:40:44.358Z,10.45
2017-11-22T12:43:11.788Z,11.35
2017-11-22T12:45:39.213Z,11.32
2017-11-22T12:48:06.644Z,9.30
2017-11-22T12:50:34.837Z,11.05
2017-11-22T12:53:02.272Z,14.02
2017-11-22T12:55:29.681Z,9.35
2017-11-22T12:58:00.554Z,13.18
2017-11-22T13:00:27.976Z,9.85
2017-11-22T13:02:55.405Z,9.45
2017-11-22T13:05:22.832Z,12.60
2017-11-22T13:07:51.020Z,8.73
2017-11-22T13:10:35.427Z,9.30
2017-11-22T13:13:02.817Z,14.17
2017-11-22T13:15:30.996Z,8.93
2017-11-22T13:17:59.199Z,9.87
2017-11-22T13:20:26.620Z,10.57
2017-11-22T13:22:54.049Z,11.77
2017-11-22T13:25:25.221Z,12.47
2017-11-22T13:27:56.470Z,10.27
2017-11-22T13:30:30.169Z,9.93
2017-11-22T13:32:57.577Z,9.50
2017-11-22T13:35:25.012Z,10.80
2017-11-22T13:37:52.433Z,7.93
2017-11-22T13:40:19.872Z,14.70
2017-11-22T13:42:47.287Z,10.83
2017-11-22T13:45:14.720Z,12.53
2017-11-22T13:47:42.916Z,13.00
2017-11-22T13:50:23.476Z,6.97
2017-11-22T13:52:50.893Z,9.10
2017-11-22T13:55:18.328Z,9.53
2017-11-22T13:57:49.601Z,7.60
2017-11-22T14:00:17.041Z,7.77
2017-11-22T14:02:44.466Z,10.50
2017-11-22T14:05:11.926Z,10.93
2017-11-22T14:07:39.347Z,8.67
2017-11-22T14:10:07.540Z,14.73
2017-11-22T14:12:34.958Z,9.67
2017-11-22T14:15:02.385Z,8.23
2017-11-22T14:17:29.815Z,10.23
2017-11-22T14:19:57.236Z,8.43
2017-11-22T14:22:25.431Z,4.97
2017-11-22T14:24:53.630Z,9.57
2017-11-22T14:27:21.048Z,10.10
2017-11-22T14:29:49.249Z,8.93
2017-11-22T14:32:16.669Z,13.30
2017-11-22T14:34:44.105Z,10.53
2017-11-22T14:37:11.568Z,10.10
2017-11-22T14:39:39.428Z,9.90
2017-11-22T14:42:06.853Z,5.73
2017-11-22T14:44:34.293Z,12.00
2017-11-22T14:47:01.725Z,11.07
2017-11-22T14:49:29.948Z,10.80
2017-11-22T14:51:57.367Z,7.13
2017-11-22T14:54:36.567Z,7.97
2017-11-22T14:57:03.993Z,12.23
2017-11-22T14:59:32.263Z,6.07
2017-11-22T15:01:59.697Z,7.33
2017-11-22T15:04:27.880Z,11.90
2017-11-22T15:06:55.305Z,11.67
2017-11-22T15:09:23.281Z,12.23
2017-11-22T15:11:50.712Z,5.73
2017-11-22T15:14:18.123Z,6.17
2017-11-22T15:16:51.309Z,14.00
2017-11-22T15:19:20.092Z,13.77
2017-11-22T15:21:49.265Z,14.00
2017-11-22T15:24:16.693Z,8.57
2017-11-22T15:26:44.111Z,7.70
2017-11-22T15:29:18.058Z,10.80
2017-11-22T15:31:45.639Z,7.60
2017-11-22T15:34:16.272Z,11.40
2017-11-22T15:36:43.701Z,10.03
2017-11-22T15:39:11.121Z,12.83
2017-11-22T15:41:44.976Z,7.93
2017-11-22T15:44:26.416Z,10.33
2017-11-22T15:46:53.844Z,11.80
2017-11-22T15:49:22.033Z,13.17
2017-11-22T15:51:50.226Z,9.47
2017-11-22T15:54:17.636Z,9.30
2017-11-22T15:56:45.739Z,15.07
2017-11-22T15:59:13.930Z,6.83
2017-11-22T16:01:41.356Z,11.23
2017-11-22T16:04:09.549Z,9.00
2017-11-22T16:06:37.745Z,10.03
2017-11-22T16:09:05.157Z,5.97
2017-11-22T16:11:32.581Z,10.87
2017-11-22T16:14:00.018Z,11.73
2017-11-22T16:16:27.977Z,10.77
2017-11-22T16:18:55.396Z,12.80
2017-11-22T16:21:22.816Z,11.37
2017-11-22T16:23:50.247Z,7.07
2017-11-22T16:26:17.661Z,10.20
2017-11-22T16:28:45.081Z,10.27
2017-11-22T16:31:13.303Z,14.93
2017-11-22T16:33:41.497Z,10.80
2017-11-22T16:36:12.107Z,11.07
2017-11-22T16:38:39.525Z,11.90
2017-11-22T16:41:06.946Z,15.67
2017-11-22T16:43:34.369Z,16.10
2017-11-22T16:46:02.326Z,12.57
2017-11-22T16:48:29.748Z,12.93
2017-11-22T16:50:57.173Z,17.80
2017-11-22T16:53:25.360Z,10.07
2017-11-22T16:55:52.783Z,19.50
2017-11-22T16:58:20.624Z,15.73
2017-11-22T17:00:48.044Z,9.30
2017-11-22T17:03:15.459Z,13.17
2017-11-22T17:05:42.885Z,20.00
2017-11-22T17:08:10.310Z,13.00
2017-11-22T17:10:37.727Z,8.93
2017-11-22T17:13:05.168Z,16.10
2017-11-22T17:15:32.572Z,15.60
2017-11-22T17:17:59.989Z,15.30
2017-11-22T17:20:27.420Z,10.93
2017-11-22T17:22:54.840Z,11.13
2017-11-22T17:25:22.821Z,14.63
2017-11-22T17:27:50.463Z,15.40
2017-11-22T17:30:18.650Z,18.07
2017-11-22T17:32:46.060Z,12.70
2017-11-22T17:35:13.517Z,10.63
2017-11-22T17:37:40.909Z,9.87
2017-11-22T17:40:22.920Z,14.93
2017-11-22T17:42:50.332Z,12.53
2017-11-22T17:45:17.760Z,11.53
2017-11-22T17:47:45.177Z,15.67
2017-11-22T17:50:13.369Z,13.43
2017-11-22T17:52:40.789Z,11.20
2017-11-22T17:55:08.222Z,17.00
2017-11-22T17:57:35.641Z,11.83
2017-11-22T18:00:03.064Z,8.27
2017-11-22T18:02:30.489Z,11.37
2017-11-22T18:04:57.918Z,12.03
2017-11-22T18:07:25.341Z,8.33
2017-11-22T18:09:53.538Z,11.80
2017-11-22T18:12:20.952Z,15.37
2017-11-22T18:14:48.391Z,22.70
2017-11-22T18:17:16.575Z,29.30
2017-11-22T18:19:43.998Z,24.93
2017-11-22T18:22:11.422Z,15.07
2017-11-22T18:24:39.657Z,15.03
2017-11-22T18:27:07.124Z,11.30
2017-11-22T18:29:34.591Z,12.77
2017-11-22T18:32:02.024Z,17.83
2017-11-22T18:34:29.453Z,16.10
2017-11-22T18:36:56.864Z,9.77
2017-11-22T18:39:24.312Z,16.57
2017-11-22T18:41:52.138Z,19.67
2017-11-22T18:44:19.570Z,12.53
2017-11-22T18:46:47.757Z,20.87
2017-11-22T18:49:15.177Z,26.67
2017-11-22T18:51:43.381Z,29.67
2017-11-22T18:54:10.804Z,24.07
2017-11-22T18:56:38.232Z,20.23
2017-11-22T18:59:05.693Z,20.13
2017-11-22T19:01:33.553Z,19.03
2017-11-22T19:04:01.075Z,20.73
2017-11-22T19:06:28.504Z,21.43
2017-11-22T19:08:55.957Z,22.43
2017-11-22T19:11:23.388Z,22.70
2017-11-22T19:13:51.761Z,26.63
2017-11-22T19:16:19.177Z,29.47
2017-11-22T19:18:46.609Z,28.40
2017-11-22T19:21:14.445Z,50.60
2017-11-22T19:23:41.865Z,45.67
2017-11-22T19:26:09.920Z,33.53
2017-11-22T19:28:38.118Z,33.50
2017-11-22T19:31:05.575Z,28.03
2017-11-22T19:33:34.255Z,32.77
2017-11-22T19:36:01.684Z,34.33
2017-11-22T19:38:30.310Z,29.90
2017-11-22T19:40:57.767Z,30.73
2017-11-22T19:43:25.877Z,40.13
2017-11-22T19:45:53.298Z,39.50
2017-11-22T19:48:20.726Z,41.67
2017-11-22T19:50:48.961Z,54.13
2017-11-22T19:53:16.389Z,37.13
2017-11-22T19:55:45.344Z,58.43
2017-11-22T19:58:12.762Z,40.07
2017-11-22T20:00:40.205Z,48.00
2017-11-22T20:03:13.722Z,32.47
2017-11-22T20:05:41.688Z,31.90
2017-11-22T20:08:20.939Z,38.93
2017-11-22T20:10:48.400Z,46.97
2017-11-22T20:13:15.833Z,46.83
2017-11-22T20:15:44.084Z,45.90
2017-11-22T20:18:11.517Z,43.93
2017-11-22T20:20:40.151Z,37.10
2017-11-22T20:23:07.578Z,37.23
2017-11-22T20:25:35.008Z,26.47
2017-11-22T20:28:04.022Z,28.33
2017-11-22T20:30:31.457Z,26.30
2017-11-22T20:33:00.402Z,48.80
2017-11-22T20:35:28.360Z,32.70
2017-11-22T20:37:55.785Z,31.13
2017-11-22T20:40:23.217Z,24.37
2017-11-22T20:42:51.830Z,32.70
2017-11-22T20:45:19.312Z,20.47
2017-11-22T20:47:46.748Z,35.17
2017-11-22T20:50:14.629Z,46.57
2017-11-22T20:52:45.413Z,60.80
2017-11-22T20:55:12.852Z,36.60
2017-11-22T20:57:40.279Z,28.23
2017-11-22T21:00:07.716Z,43.40
2017-11-22T21:02:35.149Z,38.97
2017-11-22T21:05:02.578Z,36.80
2017-11-22T21:07:40.157Z,41.40
2017-11-22T21:13:19.404Z,42.27
2017-11-22T21:16:04.377Z,29.03
2017-11-22T21:18:32.070Z,31.40
2017-11-22T21:20:59.493Z,31.93
2017-11-22T21:23:27.325Z,24.40
2017-11-22T21:25:55.380Z,25.90
2017-11-22T21:28:24.201Z,20.93
2017-11-22T21:30:51.658Z,22.90
2017-11-22T21:33:19.077Z,23.70
2017-11-22T21:35:46.928Z,161.47
2017-11-22T21:38:14.369Z,89.83
2017-11-22T21:40:42.325Z,76.53
2017-11-22T21:43:09.762Z,76.87
2017-11-22T21:45:37.185Z,49.10
2017-11-22T21:48:05.370Z,52.40
2017-11-22T21:50:33.585Z,48.77
2017-11-22T21:53:02.438Z,35.33
2017-11-22T21:55:31.038Z,40.17
2017-11-22T21:57:58.976Z,27.63
2017-11-22T22:00:27.171Z,31.73
2017-11-22T22:02:54.613Z,35.57
2017-11-22T22:05:22.804Z,40.00
2017-11-22T22:07:50.227Z,33.50
2017-11-22T22:10:17.874Z,41.67
2017-11-22T22:12:45.292Z,33.47
2017-11-22T22:15:12.720Z,33.07
2017-11-22T22:17:40.911Z,30.90
2017-11-22T22:20:08.334Z,38.50
2017-11-22T22:22:35.772Z,36.90
2017-11-22T22:25:06.646Z,35.97
2017-11-22T22:27:34.839Z,41.57
2017-11-22T22:30:02.281Z,45.00
2017-11-22T22:32:30.474Z,29.40
2017-11-22T22:34:57.893Z,30.40
2017-11-22T22:37:25.322Z,20.03
2017-11-22T22:39:53.187Z,17.47
2017-11-22T22:42:20.587Z,25.50
2017-11-22T22:44:52.488Z,30.33
2017-11-22T22:47:19.914Z,15.27
2017-11-22T22:49:48.096Z,14.97
2017-11-22T22:52:16.056Z,10.07
2017-11-22T22:54:44.681Z,14.93
2017-11-22T22:57:12.104Z,18.37
2017-11-22T22:59:39.519Z,21.07
2017-11-22T23:02:06.942Z,16.23
2017-11-22T23:04:37.869Z,15.73
2017-11-22T23:07:08.165Z,19.87
2017-11-22T23:09:37.057Z,18.60
2017-11-22T23:12:04.571Z,15.80
2017-11-22T23:14:31.999Z,23.40
2017-11-22T23:16:59.420Z,25.63
2017-11-22T23:19:27.376Z,22.43
2017-11-22T23:21:54.797Z,25.17
2017-11-22T23:24:22.214Z,18.97
2017-11-22T23:26:50.401Z,17.57
2017-11-22T23:29:17.826Z,24.07
2017-11-22T23:31:45.249Z,18.37
2017-11-22T23:34:13.260Z,22.23
2017-11-22T23:36:40.680Z,21.47
2017-11-22T23:39:08.097Z,22.93
2017-11-22T23:41:35.528Z,20.40
2017-11-22T23:44:03.343Z,20.80
2017-11-22T23:46:30.744Z,17.83
2017-11-22T23:48:58.156Z,18.73
2017-11-22T23:51:25.584Z,18.53
2017-11-22T23:53:54.190Z,14.73
2017-11-22T23:56:21.891Z,17.97
2017-11-22T23:58:49.302Z,14.77
